createdAt,value
2017-07-08T00:01:33.142Z,64.86
2017-07-08T00:04:00.543Z,64.65
2017-07-08T00:06:27.938Z,64.05
2017-07-08T00:08:55.353Z,63.84
2017-07-08T00:11:22.757Z,63.31
2017-07-08T00:13:50.164Z,62.61
2017-07-08T00:16:17.560Z,62.25
2017-07-08T00:18:44.973Z,62.06
2017-07-08T00:21:12.375Z,61.61
2017-07-08T00:23:39.788Z,61.31
2017-07-08T00:26:07.192Z,60.78
2017-07-08T00:28:34.603Z,60.34
2017-07-08T00:31:02.031Z,60.32
2017-07-08T00:33:29.675Z,60.38
2017-07-08T00:35:57.092Z,60.67
2017-07-08T00:38:24.501Z,60.25
2017-07-08T00:40:51.903Z,60.10
2017-07-08T00:43:19.304Z,60.22
2017-07-08T00:45:46.699Z,59.82
2017-07-08T00:48:14.419Z,59.99
2017-07-08T00:50:41.835Z,59.88
2017-07-08T00:53:09.245Z,59.96
2017-07-08T00:55:36.652Z,59.96
2017-07-08T00:58:04.052Z,60.07
2017-07-08T01:00:31.460Z,59.97
2017-07-08T01:02:58.862Z,60.02
2017-07-08T01:05:26.259Z,59.71
2017-07-08T01:07:53.667Z,59.77
2017-07-08T01:10:21.068Z,60.16
2017-07-08T01:12:48.472Z,60.26
2017-07-08T01:15:15.876Z,60.04
2017-07-08T01:17:43.589Z,60.52
2017-07-08T01:20:10.987Z,60.53
2017-07-08T01:22:38.382Z,60.65
2017-07-08T01:25:05.785Z,60.57
2017-07-08T01:27:33.197Z,60.98
2017-07-08T01:30:00.609Z,60.98
2017-07-08T01:32:28.000Z,61.27
2017-07-08T01:34:55.617Z,61.46
2017-07-08T01:37:23.011Z,61.46
2017-07-08T01:39:50.411Z,62.01
2017-07-08T01:42:17.808Z,61.94
2017-07-08T01:44:45.508Z,61.56
2017-07-08T01:47:12.907Z,61.88
2017-07-08T01:49:40.317Z,61.98
2017-07-08T01:52:07.716Z,62.52
2017-07-08T01:54:35.120Z,62.47
2017-07-08T01:57:02.548Z,62.32
2017-07-08T01:59:29.951Z,62.73
2017-07-08T02:01:57.388Z,63.29
2017-07-08T02:04:24.791Z,63.55
2017-07-08T02:06:52.189Z,63.43
2017-07-08T02:09:19.600Z,63.08
2017-07-08T02:11:47.006Z,63.67
2017-07-08T02:14:14.407Z,63.41
2017-07-08T02:16:41.803Z,63.74
2017-07-08T02:19:09.216Z,63.60
2017-07-08T02:21:36.609Z,64.09
2017-07-08T02:24:04.044Z,63.91
2017-07-08T02:26:31.436Z,64.22
2017-07-08T02:28:58.855Z,64.29
2017-07-08T02:31:26.258Z,64.57
2017-07-08T02:33:53.655Z,64.75
2017-07-08T02:36:21.060Z,64.44
2017-07-08T02:38:48.460Z,64.29
2017-07-08T02:41:15.865Z,64.14
2017-07-08T02:43:43.263Z,64.38
2017-07-08T02:46:10.663Z,64.77
2017-07-08T02:48:38.070Z,64.68
2017-07-08T02:51:05.474Z,65.24
2017-07-08T02:53:32.871Z,65.02
2017-07-08T02:56:00.283Z,64.74
2017-07-08T02:58:27.695Z,64.94
2017-07-08T03:00:55.327Z,65.20
2017-07-08T03:03:22.723Z,65.22
2017-07-08T03:05:50.139Z,65.35
2017-07-08T03:08:17.542Z,65.53
2017-07-08T03:10:44.939Z,65.46
2017-07-08T03:13:12.338Z,65.68
2017-07-08T03:15:39.747Z,66.16
2017-07-08T03:18:07.145Z,66.08
2017-07-08T03:20:34.547Z,66.25
2017-07-08T03:23:01.949Z,66.39
2017-07-08T03:25:29.347Z,67.00
2017-07-08T03:27:56.752Z,67.44
2017-07-08T03:30:24.159Z,68.71
2017-07-08T03:32:51.555Z,69.34
2017-07-08T03:35:18.955Z,70.21
2017-07-08T03:37:46.355Z,70.37
2017-07-08T03:40:13.764Z,70.75
2017-07-08T03:42:41.159Z,70.99
2017-07-08T03:45:08.828Z,71.53
2017-07-08T03:47:36.227Z,71.95
2017-07-08T03:50:03.622Z,73.34
2017-07-08T03:52:31.046Z,72.91
2017-07-08T03:54:58.439Z,72.90
2017-07-08T03:57:25.854Z,73.16
2017-07-08T03:59:53.252Z,72.64
2017-07-08T04:02:20.663Z,73.04
2017-07-08T04:04:48.061Z,73.13
2017-07-08T04:07:15.464Z,72.65
2017-07-08T04:09:42.875Z,71.85
2017-07-08T04:12:10.276Z,71.92
2017-07-08T04:14:37.682Z,71.43
2017-07-08T04:17:05.092Z,71.53
2017-07-08T04:19:32.493Z,71.83
2017-07-08T04:21:59.899Z,72.01
2017-07-08T04:24:27.307Z,71.38
2017-07-08T04:26:54.713Z,70.71
2017-07-08T04:29:22.119Z,70.89
2017-07-08T04:31:49.527Z,71.37
2017-07-08T04:34:16.929Z,71.38
2017-07-08T04:36:44.364Z,71.74
2017-07-08T04:39:11.759Z,70.73
2017-07-08T04:41:39.176Z,70.83
2017-07-08T04:44:06.636Z,69.92
2017-07-08T04:46:33.983Z,69.31
2017-07-08T04:49:01.383Z,68.79
2017-07-08T04:51:28.787Z,69.11
2017-07-08T04:53:56.191Z,68.75
2017-07-08T04:56:23.611Z,69.84
2017-07-08T04:58:51.005Z,68.68
2017-07-08T05:01:18.411Z,69.45
2017-07-08T05:03:45.815Z,69.96
2017-07-08T05:06:13.219Z,69.16
2017-07-08T05:08:40.630Z,69.37
2017-07-08T05:11:08.032Z,69.76
2017-07-08T05:13:35.440Z,70.14
2017-07-08T05:16:02.845Z,70.44
2017-07-08T05:18:30.252Z,71.17
2017-07-08T05:20:57.651Z,71.79
2017-07-08T05:23:25.059Z,71.93
2017-07-08T05:25:52.460Z,72.36
2017-07-08T05:28:19.868Z,72.50
2017-07-08T05:30:47.271Z,72.35
2017-07-08T05:33:14.675Z,72.64
2017-07-08T05:35:42.079Z,72.24
2017-07-08T05:38:09.479Z,72.62
2017-07-08T05:40:36.875Z,72.91
2017-07-08T05:43:04.291Z,72.93
2017-07-08T05:45:31.720Z,73.33
2017-07-08T05:47:59.095Z,73.82
2017-07-08T05:50:26.495Z,73.35
2017-07-08T05:52:53.935Z,73.49
2017-07-08T05:55:21.334Z,74.43
2017-07-08T05:57:48.745Z,74.50
2017-07-08T06:00:16.139Z,75.00
2017-07-08T06:02:43.572Z,75.10
2017-07-08T06:05:10.967Z,75.51
2017-07-08T06:07:38.371Z,76.53
2017-07-08T06:10:05.771Z,76.63
2017-07-08T06:12:33.174Z,76.58
2017-07-08T06:15:00.575Z,76.61
2017-07-08T06:17:27.980Z,76.58
2017-07-08T06:19:55.391Z,76.90
2017-07-08T06:22:22.787Z,77.16
2017-07-08T06:24:50.242Z,77.15
2017-07-08T06:27:17.589Z,76.59
2017-07-08T06:32:43.167Z,77.67
2017-07-08T06:35:10.572Z,77.35
2017-07-08T06:37:42.997Z,77.12
2017-07-08T06:40:10.398Z,77.62
2017-07-08T06:42:37.800Z,77.90
2017-07-08T06:45:05.207Z,76.14
2017-07-08T06:47:32.607Z,76.53
2017-07-08T06:50:00.795Z,76.37
2017-07-08T06:52:28.228Z,76.59
2017-07-08T06:54:55.707Z,76.14
2017-07-08T06:57:23.104Z,75.93
2017-07-08T06:59:50.511Z,76.54
2017-07-08T07:02:17.907Z,76.80
2017-07-08T07:04:45.312Z,76.33
2017-07-08T07:07:12.855Z,76.64
2017-07-08T07:09:40.274Z,76.30
2017-07-08T07:12:08.025Z,76.93
2017-07-08T07:14:35.709Z,77.37
2017-07-08T07:17:03.108Z,77.19
2017-07-08T07:19:30.516Z,76.62
2017-07-08T07:21:57.916Z,76.20
2017-07-08T07:24:25.328Z,76.44
2017-07-08T07:26:52.737Z,76.42
2017-07-08T07:29:20.145Z,76.59
2017-07-08T07:31:47.546Z,75.31
2017-07-08T07:34:14.951Z,75.34
2017-07-08T07:36:42.351Z,75.35
2017-07-08T07:39:09.775Z,75.19
2017-07-08T07:41:37.171Z,74.80
2017-07-08T07:44:04.593Z,75.01
2017-07-08T07:46:31.991Z,75.20
2017-07-08T07:48:59.603Z,75.34
2017-07-08T07:51:27.006Z,75.33
2017-07-08T07:53:54.399Z,75.28
2017-07-08T07:56:21.799Z,74.38
2017-07-08T07:58:49.200Z,73.76
2017-07-08T08:01:16.607Z,74.33
2017-07-08T08:06:17.941Z,74.04
2017-07-08T08:08:45.336Z,74.75
2017-07-08T08:11:12.739Z,73.78
2017-07-08T08:13:40.136Z,73.44
2017-07-08T08:16:07.539Z,72.79
2017-07-08T08:18:34.935Z,71.94
2017-07-08T08:21:02.348Z,72.94
2017-07-08T08:23:29.746Z,72.53
2017-07-08T08:25:57.144Z,72.28
2017-07-08T08:28:24.559Z,72.61
2017-07-08T08:30:51.973Z,71.00
2017-07-08T08:33:19.372Z,71.13
2017-07-08T08:35:46.776Z,70.99
2017-07-08T08:38:14.619Z,69.65
2017-07-08T08:40:42.509Z,69.96
2017-07-08T08:43:10.354Z,70.02
2017-07-08T08:45:38.151Z,69.04
2017-07-08T08:48:06.036Z,69.08
2017-07-08T08:50:33.732Z,69.06
2017-07-08T08:53:01.135Z,67.44
2017-07-08T08:55:28.553Z,68.24
2017-07-08T08:57:55.939Z,66.08
2017-07-08T09:00:23.371Z,66.31
2017-07-08T09:02:50.766Z,65.68
2017-07-08T09:05:18.182Z,64.91
2017-07-08T09:07:45.594Z,66.11
2017-07-08T09:10:12.987Z,64.79
2017-07-08T09:12:40.395Z,63.93
2017-07-08T09:15:07.791Z,65.34
2017-07-08T09:17:35.191Z,62.80
2017-07-08T09:20:02.588Z,62.05
2017-07-08T09:22:29.982Z,61.47
2017-07-08T09:24:57.379Z,60.97
2017-07-08T09:27:24.778Z,60.10
2017-07-08T09:29:52.176Z,59.45
2017-07-08T09:32:19.578Z,59.56
2017-07-08T09:34:51.135Z,59.95
2017-07-08T09:37:18.527Z,59.93
2017-07-08T09:39:45.915Z,58.00
2017-07-08T09:42:13.523Z,58.26
2017-07-08T09:44:40.941Z,59.22
2017-07-08T09:47:08.556Z,57.43
2017-07-08T09:49:35.958Z,59.52
2017-07-08T09:52:03.354Z,58.68
2017-07-08T09:54:30.782Z,59.08
2017-07-08T09:56:58.192Z,55.80
2017-07-08T09:59:25.651Z,57.47
2017-07-08T10:01:53.056Z,56.64
2017-07-08T10:04:20.452Z,56.23
2017-07-08T10:06:47.844Z,56.67
2017-07-08T10:09:15.239Z,57.06
2017-07-08T10:11:42.631Z,58.43
2017-07-08T10:14:10.028Z,55.82
2017-07-08T10:16:37.423Z,56.89
2017-07-08T10:19:04.823Z,56.73
2017-07-08T10:21:32.211Z,57.33
2017-07-08T10:23:59.829Z,56.83
2017-07-08T10:26:27.220Z,56.24
2017-07-08T10:28:54.615Z,56.37
2017-07-08T10:31:22.010Z,54.70
2017-07-08T10:33:49.421Z,56.74
2017-07-08T10:36:16.816Z,56.05
2017-07-08T10:38:44.220Z,56.84
2017-07-08T10:41:11.820Z,53.61
2017-07-08T10:43:39.219Z,53.91
2017-07-08T10:46:06.607Z,54.54
2017-07-08T10:48:34.008Z,54.33
2017-07-08T10:51:01.403Z,55.00
2017-07-08T10:53:28.803Z,55.58
2017-07-08T10:55:56.195Z,55.17
2017-07-08T10:58:23.592Z,54.82
2017-07-08T11:00:50.978Z,55.55
2017-07-08T11:03:18.687Z,54.81
2017-07-08T11:05:46.095Z,55.70
2017-07-08T11:08:13.496Z,55.97
2017-07-08T11:10:40.895Z,56.35
2017-07-08T11:13:08.292Z,55.89
2017-07-08T11:15:35.685Z,54.36
2017-07-08T11:18:03.083Z,54.37
2017-07-08T11:20:30.481Z,54.38
2017-07-08T11:22:57.870Z,55.04
2017-07-08T11:25:25.272Z,55.00
2017-07-08T11:27:52.668Z,53.95
2017-07-08T11:30:20.063Z,52.69
2017-07-08T11:32:47.759Z,52.59
2017-07-08T11:35:15.159Z,51.50
2017-07-08T11:37:42.551Z,52.20
2017-07-08T11:40:09.955Z,52.27
2017-07-08T11:42:37.339Z,52.85
2017-07-08T11:45:04.850Z,52.92
2017-07-08T11:47:32.231Z,53.06
2017-07-08T11:50:01.069Z,52.64
2017-07-08T11:52:28.465Z,53.14
2017-07-08T11:54:55.853Z,52.41
2017-07-08T11:57:23.247Z,52.70
2017-07-08T11:59:50.645Z,52.82
2017-07-08T12:02:18.039Z,52.37
2017-07-08T12:04:45.449Z,52.30
2017-07-08T12:07:12.844Z,51.70
2017-07-08T12:09:40.239Z,52.17
2017-07-08T12:12:07.630Z,53.22
2017-07-08T12:14:35.039Z,54.03
2017-07-08T12:17:02.432Z,54.64
2017-07-08T12:19:29.828Z,53.91
2017-07-08T12:21:57.229Z,54.03
2017-07-08T12:24:24.646Z,55.45
2017-07-08T12:26:52.040Z,55.81
2017-07-08T12:29:19.428Z,58.86
2017-07-08T12:31:46.850Z,60.87
2017-07-08T12:34:14.231Z,62.15
2017-07-08T12:36:41.631Z,65.03
2017-07-08T12:39:09.018Z,64.82
2017-07-08T12:41:36.435Z,67.08
2017-07-08T12:44:03.834Z,68.76
2017-07-08T12:46:31.232Z,67.32
2017-07-08T12:48:58.632Z,68.32
2017-07-08T12:51:26.039Z,69.51
2017-07-08T12:53:53.433Z,69.44
2017-07-08T12:56:20.832Z,68.22
2017-07-08T12:58:48.222Z,68.87
2017-07-08T13:01:15.630Z,68.07
2017-07-08T13:03:43.016Z,68.30
2017-07-08T13:06:10.463Z,67.82
2017-07-08T13:08:38.072Z,68.69
2017-07-08T13:11:05.464Z,68.73
2017-07-08T13:13:33.649Z,71.23
2017-07-08T13:16:01.285Z,70.69
2017-07-08T13:18:28.687Z,71.24
2017-07-08T13:20:56.101Z,72.45
2017-07-08T13:23:23.502Z,72.89
2017-07-08T13:25:50.901Z,72.08
2017-07-08T13:28:18.292Z,72.38
2017-07-08T13:30:45.699Z,73.62
2017-07-08T13:33:13.104Z,72.81
2017-07-08T13:35:40.512Z,73.74
2017-07-08T13:38:07.911Z,73.70
2017-07-08T13:40:35.335Z,74.70
2017-07-08T13:43:02.738Z,75.03
2017-07-08T13:45:30.154Z,75.22
2017-07-08T13:47:57.559Z,74.68
2017-07-08T13:50:24.980Z,74.86
2017-07-08T13:52:52.392Z,75.05
2017-07-08T13:55:19.788Z,75.19
2017-07-08T13:57:47.196Z,75.33
2017-07-08T14:00:14.583Z,75.91
2017-07-08T14:02:41.993Z,75.68
2017-07-08T14:05:09.385Z,74.67
2017-07-08T14:07:36.792Z,73.80
2017-07-08T14:10:04.198Z,74.93
2017-07-08T14:12:31.600Z,72.89
2017-07-08T14:14:59.014Z,72.96
2017-07-08T14:17:26.409Z,72.34
2017-07-08T14:19:53.809Z,72.10
2017-07-08T14:22:21.203Z,71.90
2017-07-08T14:24:48.624Z,69.72
2017-07-08T14:27:16.016Z,70.58
2017-07-08T14:29:43.707Z,69.25
2017-07-08T14:32:11.101Z,68.50
2017-07-08T14:34:38.500Z,69.72
2017-07-08T14:37:05.892Z,68.94
2017-07-08T14:39:33.535Z,68.57
2017-07-08T14:42:00.927Z,68.74
2017-07-08T14:44:28.317Z,70.28
2017-07-08T14:46:55.740Z,70.93
2017-07-08T14:49:23.125Z,71.94
2017-07-08T14:51:50.520Z,72.22
2017-07-08T14:54:17.916Z,72.74
2017-07-08T14:56:45.314Z,72.36
2017-07-08T14:59:12.710Z,71.49
2017-07-08T15:01:40.107Z,72.06
2017-07-08T15:04:07.558Z,71.53
2017-07-08T15:06:34.947Z,71.31
2017-07-08T15:09:02.344Z,70.84
2017-07-08T15:11:29.745Z,69.30
2017-07-08T15:16:31.059Z,68.30
2017-07-08T15:18:58.455Z,69.51
2017-07-08T15:21:25.843Z,69.90
2017-07-08T15:23:53.245Z,68.82
2017-07-08T15:26:20.632Z,68.01
2017-07-08T15:28:48.033Z,66.78
2017-07-08T15:31:15.427Z,67.18
2017-07-08T15:33:43.044Z,67.22
2017-07-08T15:36:10.664Z,66.99
2017-07-08T15:38:38.060Z,67.27
2017-07-08T15:41:05.452Z,67.17
2017-07-08T15:43:32.856Z,66.87
2017-07-08T15:46:00.246Z,66.24
2017-07-08T15:48:27.658Z,66.38
2017-07-08T15:50:55.042Z,66.53
2017-07-08T15:53:22.452Z,67.23
2017-07-08T15:55:49.828Z,66.92
2017-07-08T15:58:17.237Z,66.96
2017-07-08T16:00:44.623Z,66.71
2017-07-08T16:03:12.015Z,66.64
2017-07-08T16:05:39.412Z,67.30
2017-07-08T16:08:06.804Z,66.49
2017-07-08T16:10:34.200Z,65.49
2017-07-08T16:13:01.632Z,66.48
2017-07-08T16:15:29.027Z,65.41
2017-07-08T16:17:56.415Z,65.90
2017-07-08T16:20:23.815Z,65.81
2017-07-08T16:22:51.203Z,65.09
2017-07-08T16:25:18.602Z,65.00
2017-07-08T16:27:45.992Z,65.52
2017-07-08T16:30:13.391Z,66.21
2017-07-08T16:32:40.784Z,66.31
2017-07-08T16:35:08.176Z,66.51
2017-07-08T16:37:35.582Z,65.88
2017-07-08T16:40:02.973Z,65.47
2017-07-08T16:42:30.359Z,65.22
2017-07-08T16:44:57.976Z,65.74
2017-07-08T16:47:25.362Z,65.64
2017-07-08T16:49:52.768Z,65.65
2017-07-08T16:52:20.171Z,65.20
2017-07-08T16:54:47.566Z,65.24
2017-07-08T16:57:14.955Z,65.62
2017-07-08T16:59:42.347Z,66.18
2017-07-08T17:02:10.004Z,66.62
2017-07-08T17:04:37.402Z,66.89
2017-07-08T17:07:04.803Z,66.89
2017-07-08T17:09:32.204Z,66.01
2017-07-08T17:11:59.599Z,65.61
2017-07-08T17:14:26.995Z,66.09
2017-07-08T17:16:54.387Z,65.79
2017-07-08T17:19:21.784Z,66.19
2017-07-08T17:21:49.177Z,65.74
2017-07-08T17:24:16.572Z,65.67
2017-07-08T17:26:43.959Z,65.66
2017-07-08T17:29:11.353Z,65.53
2017-07-08T17:31:38.764Z,65.96
2017-07-08T17:34:06.351Z,65.98
2017-07-08T17:36:33.747Z,65.75
2017-07-08T17:39:01.168Z,65.08
2017-07-08T17:41:28.547Z,64.99
2017-07-08T17:43:55.936Z,64.69
2017-07-08T17:46:23.331Z,64.87
2017-07-08T17:48:50.964Z,64.45
2017-07-08T17:51:18.352Z,64.88
2017-07-08T17:53:45.743Z,64.63
2017-07-08T17:56:13.432Z,64.98
2017-07-08T17:58:40.829Z,65.21
2017-07-08T18:01:08.222Z,65.40
2017-07-08T18:03:35.605Z,65.06
2017-07-08T18:06:02.995Z,64.51
2017-07-08T18:08:30.385Z,65.04
2017-07-08T18:10:57.783Z,64.39
2017-07-08T18:13:25.173Z,64.50
2017-07-08T18:15:52.564Z,64.61
2017-07-08T18:18:19.955Z,65.09
2017-07-08T18:20:47.352Z,65.32
2017-07-08T18:23:14.747Z,65.46
2017-07-08T18:25:42.144Z,63.79
2017-07-08T18:28:09.540Z,63.07
2017-07-08T18:30:36.936Z,62.29
2017-07-08T18:33:04.363Z,62.91
2017-07-08T18:35:31.763Z,63.58
2017-07-08T18:37:59.152Z,64.51
2017-07-08T18:40:26.560Z,64.53
2017-07-08T18:42:53.955Z,64.66
2017-07-08T18:45:21.348Z,64.71
2017-07-08T18:47:48.747Z,64.57
2017-07-08T18:50:16.136Z,64.56
2017-07-08T18:52:43.527Z,64.25
2017-07-08T18:55:10.916Z,64.13
2017-07-08T18:57:38.327Z,64.37
2017-07-08T19:00:05.804Z,64.31
2017-07-08T19:02:33.186Z,63.72
2017-07-08T19:05:00.587Z,63.38
2017-07-08T19:07:27.988Z,63.24
2017-07-08T19:09:55.384Z,62.61
2017-07-08T19:12:22.786Z,62.53
2017-07-08T19:14:50.180Z,62.47
2017-07-08T19:17:17.579Z,62.52
2017-07-08T19:19:44.968Z,62.46
2017-07-08T19:22:12.363Z,62.53
2017-07-08T19:24:39.856Z,62.36
2017-07-08T19:27:07.247Z,61.35
2017-07-08T19:29:34.641Z,61.94
2017-07-08T19:32:02.036Z,61.64
2017-07-08T19:34:29.425Z,62.09
2017-07-08T19:36:56.823Z,62.21
2017-07-08T19:39:24.216Z,62.62
2017-07-08T19:41:51.615Z,62.88
2017-07-08T19:44:19.009Z,62.98
2017-07-08T19:46:46.556Z,63.00
2017-07-08T19:49:13.927Z,63.02
2017-07-08T19:51:41.325Z,62.73
2017-07-08T19:54:09.740Z,62.31
2017-07-08T19:56:37.119Z,61.68
2017-07-08T19:59:04.523Z,61.44
2017-07-08T20:01:31.914Z,61.83
2017-07-08T20:03:59.361Z,62.25
2017-07-08T20:06:26.995Z,61.70
2017-07-08T20:08:54.403Z,61.32
2017-07-08T20:11:21.799Z,61.27
2017-07-08T20:13:49.173Z,60.81
2017-07-08T20:16:16.564Z,60.35
2017-07-08T20:18:43.965Z,61.00
2017-07-08T20:21:11.367Z,61.42
2017-07-08T20:23:38.763Z,61.34
2017-07-08T20:26:06.440Z,60.85
2017-07-08T20:28:33.839Z,61.02
2017-07-08T20:31:01.232Z,60.47
2017-07-08T20:33:28.632Z,61.04
2017-07-08T20:35:56.020Z,61.66
2017-07-08T20:38:23.412Z,61.88
2017-07-08T20:40:50.807Z,61.35
2017-07-08T20:43:18.204Z,61.39
2017-07-08T20:45:45.592Z,61.01
2017-07-08T20:48:12.987Z,60.86
2017-07-08T20:50:40.391Z,61.75
2017-07-08T20:53:07.786Z,62.06
2017-07-08T20:55:35.199Z,62.30
2017-07-08T20:58:02.613Z,62.97
2017-07-08T21:00:30.004Z,63.34
2017-07-08T21:02:57.400Z,62.82
2017-07-08T21:05:25.031Z,62.99
2017-07-08T21:07:52.415Z,62.95
2017-07-08T21:10:19.817Z,63.08
2017-07-08T21:12:47.223Z,62.92
2017-07-08T21:15:14.661Z,62.94
2017-07-08T21:17:42.037Z,63.11
2017-07-08T21:20:09.437Z,63.21
2017-07-08T21:22:36.835Z,63.49
2017-07-08T21:25:04.234Z,63.30
2017-07-08T21:27:31.628Z,63.64
2017-07-08T21:29:59.286Z,64.11
2017-07-08T21:32:26.675Z,64.10
2017-07-08T21:34:54.082Z,64.56
2017-07-08T21:37:21.473Z,64.80
2017-07-08T21:39:48.858Z,64.54
2017-07-08T21:42:16.257Z,64.31
2017-07-08T21:44:43.651Z,64.42
2017-07-08T21:47:11.047Z,64.25
2017-07-08T21:49:38.454Z,64.32
2017-07-08T21:52:06.090Z,64.78
2017-07-08T21:54:33.486Z,64.66
2017-07-08T21:57:00.875Z,64.62
2017-07-08T21:59:28.280Z,64.27
2017-07-08T22:01:55.669Z,63.80
2017-07-08T22:04:23.075Z,63.40
2017-07-08T22:06:50.468Z,63.09
2017-07-08T22:09:17.863Z,63.02
2017-07-08T22:11:45.252Z,63.34
2017-07-08T22:14:12.651Z,63.81
2017-07-08T22:16:40.056Z,64.37
2017-07-08T22:19:07.447Z,64.30
2017-07-08T22:21:34.836Z,65.00
2017-07-08T22:24:02.223Z,64.47
2017-07-08T22:26:29.623Z,64.02
2017-07-08T22:28:57.011Z,63.85
2017-07-08T22:31:24.676Z,63.20
2017-07-08T22:33:52.063Z,62.67
2017-07-08T22:36:19.460Z,62.27
2017-07-08T22:38:46.853Z,61.88
2017-07-08T22:41:14.254Z,61.96
2017-07-08T22:43:41.639Z,61.87
2017-07-08T22:46:09.045Z,61.80
2017-07-08T22:48:36.428Z,62.39
2017-07-08T22:51:03.831Z,62.16
2017-07-08T22:53:31.221Z,62.21
2017-07-08T22:55:58.624Z,61.94
2017-07-08T22:58:26.016Z,62.24
2017-07-08T23:00:53.425Z,62.52
2017-07-08T23:03:20.815Z,62.34
2017-07-08T23:05:48.225Z,62.33
2017-07-08T23:08:15.611Z,61.94
2017-07-08T23:10:43.014Z,61.71
2017-07-08T23:13:10.427Z,61.24
2017-07-08T23:15:37.834Z,61.14
2017-07-08T23:18:05.222Z,60.62
2017-07-08T23:20:32.619Z,60.96
2017-07-08T23:23:00.010Z,60.89
2017-07-08T23:25:27.404Z,60.71
2017-07-08T23:27:54.803Z,60.62
2017-07-08T23:30:22.195Z,61.13
2017-07-08T23:32:49.855Z,61.69
2017-07-08T23:35:17.253Z,61.97
2017-07-08T23:37:44.650Z,61.82
2017-07-08T23:40:12.043Z,62.08
2017-07-08T23:42:39.492Z,62.54
2017-07-08T23:45:06.872Z,62.52
2017-07-08T23:47:34.267Z,63.00
2017-07-08T23:50:01.664Z,63.46
2017-07-08T23:52:29.060Z,63.55
2017-07-08T23:54:56.456Z,64.65
2017-07-08T23:57:23.850Z,64.64
2017-07-08T23:59:51.243Z,65.07
